sensor_id;sensor_type;location;lat;lon;timestamp;P1;durP1;ratioP1;P2;durP2;ratioP2
63018;SDS011;49105;46.046;10.760;2023-03-13T00:00:15;3.40;;;3.30;;
63018;SDS011;49105;46.046;10.760;2023-03-13T00:02:41;3.00;;;2.90;;
63018;SDS011;49105;46.046;10.760;2023-03-13T00:05:09;2.88;;;2.78;;
63018;SDS011;49105;46.046;10.760;2023-03-13T00:07:35;3.40;;;3.30;;
63018;SDS011;49105;46.046;10.760;2023-03-13T00:10:01;3.10;;;3.00;;
63018;SDS011;49105;46.046;10.760;2023-03-13T00:12:26;4.15;;;4.05;;
63018;SDS011;49105;46.046;10.760;2023-03-13T00:14:52;3.05;;;2.95;;
63018;SDS011;49105;46.046;10.760;2023-03-13T00:17:17;3.60;;;3.50;;
63018;SDS011;49105;46.046;10.760;2023-03-13T00:19:43;3.40;;;3.30;;
63018;SDS011;49105;46.046;10.760;2023-03-13T00:22:08;3.00;;;2.90;;
63018;SDS011;49105;46.046;10.760;2023-03-13T00:24:34;3.47;;;3.22;;
63018;SDS011;49105;46.046;10.760;2023-03-13T00:26:59;3.10;;;3.00;;
63018;SDS011;49105;46.046;10.760;2023-03-13T00:29:29;3.05;;;2.95;;
63018;SDS011;49105;46.046;10.760;2023-03-13T00:31:56;3.13;;;3.03;;
63018;SDS011;49105;46.046;10.760;2023-03-13T00:34:24;3.20;;;3.10;;
63018;SDS011;49105;46.046;10.760;2023-03-13T00:36:51;3.60;;;3.50;;
63018;SDS011;49105;46.046;10.760;2023-03-13T00:39:17;3.50;;;3.30;;
63018;SDS011;49105;46.046;10.760;2023-03-13T00:41:43;2.97;;;2.88;;
63018;SDS011;49105;46.046;10.760;2023-03-13T00:44:09;3.10;;;3.00;;
63018;SDS011;49105;46.046;10.760;2023-03-13T00:46:34;3.05;;;2.95;;
63018;SDS011;49105;46.046;10.760;2023-03-13T00:49:00;2.92;;;2.83;;
63018;SDS011;49105;46.046;10.760;2023-03-13T00:51:26;2.83;;;2.72;;
63018;SDS011;49105;46.046;10.760;2023-03-13T00:53:52;2.92;;;2.83;;
63018;SDS011;49105;46.046;10.760;2023-03-13T00:56:18;2.90;;;2.80;;
63018;SDS011;49105;46.046;10.760;2023-03-13T00:58:45;3.67;;;3.58;;
63018;SDS011;49105;46.046;10.760;2023-03-13T01:03:42;3.03;;;2.92;;
63018;SDS011;49105;46.046;10.760;2023-03-13T01:06:11;3.67;;;3.55;;
63018;SDS011;49105;46.046;10.760;2023-03-13T01:08:38;3.55;;;3.45;;
63018;SDS011;49105;46.046;10.760;2023-03-13T01:11:05;3.35;;;3.25;;
63018;SDS011;49105;46.046;10.760;2023-03-13T01:13:33;3.40;;;3.30;;
63018;SDS011;49105;46.046;10.760;2023-03-13T01:16:03;2.83;;;2.72;;
63018;SDS011;49105;46.046;10.760;2023-03-13T01:18:34;2.85;;;2.75;;
63018;SDS011;49105;46.046;10.760;2023-03-13T01:21:00;3.22;;;3.13;;
63018;SDS011;49105;46.046;10.760;2023-03-13T01:23:26;3.13;;;3.03;;
63018;SDS011;49105;46.046;10.760;2023-03-13T01:25:55;3.65;;;3.55;;
63018;SDS011;49105;46.046;10.760;2023-03-13T01:28:21;3.10;;;3.00;;
63018;SDS011;49105;46.046;10.760;2023-03-13T01:30:47;3.20;;;3.10;;
63018;SDS011;49105;46.046;10.760;2023-03-13T01:33:13;3.47;;;3.38;;
63018;SDS011;49105;46.046;10.760;2023-03-13T01:35:38;3.75;;;3.55;;
63018;SDS011;49105;46.046;10.760;2023-03-13T01:38:04;5.85;;;5.50;;
63018;SDS011;49105;46.046;10.760;2023-03-13T01:40:29;3.20;;;3.10;;
63018;SDS011;49105;46.046;10.760;2023-03-13T01:42:56;3.40;;;3.22;;
63018;SDS011;49105;46.046;10.760;2023-03-13T01:48:46;3.00;;;2.90;;
63018;SDS011;49105;46.046;10.760;2023-03-13T01:51:31;3.60;;;3.47;;
63018;SDS011;49105;46.046;10.760;2023-03-13T01:54:17;3.65;;;3.55;;
63018;SDS011;49105;46.046;10.760;2023-03-13T01:56:46;3.30;;;3.20;;
63018;SDS011;49105;46.046;10.760;2023-03-13T01:59:16;3.72;;;3.63;;
63018;SDS011;49105;46.046;10.760;2023-03-13T02:01:45;3.17;;;3.08;;
63018;SDS011;49105;46.046;10.760;2023-03-13T02:04:14;3.05;;;2.95;;
63018;SDS011;49105;46.046;10.760;2023-03-13T02:06:41;3.20;;;3.10;;
63018;SDS011;49105;46.046;10.760;2023-03-13T02:09:11;3.50;;;3.40;;
63018;SDS011;49105;46.046;10.760;2023-03-13T02:11:51;3.35;;;3.25;;
63018;SDS011;49105;46.046;10.760;2023-03-13T02:14:21;3.40;;;3.30;;
63018;SDS011;49105;46.046;10.760;2023-03-13T02:16:51;3.65;;;3.55;;
63018;SDS011;49105;46.046;10.760;2023-03-13T02:19:21;3.13;;;3.03;;
63018;SDS011;49105;46.046;10.760;2023-03-13T02:21:56;3.00;;;2.90;;
63018;SDS011;49105;46.046;10.760;2023-03-13T02:24:57;2.80;;;2.70;;
63018;SDS011;49105;46.046;10.760;2023-03-13T02:27:40;3.40;;;3.30;;
63018;SDS011;49105;46.046;10.760;2023-03-13T02:30:07;3.92;;;3.83;;
63018;SDS011;49105;46.046;10.760;2023-03-13T02:32:34;3.70;;;3.60;;
63018;SDS011;49105;46.046;10.760;2023-03-13T02:35:01;3.40;;;3.30;;
63018;SDS011;49105;46.046;10.760;2023-03-13T02:37:31;3.83;;;3.72;;
63018;SDS011;49105;46.046;10.760;2023-03-13T02:39:58;3.28;;;3.17;;
63018;SDS011;49105;46.046;10.760;2023-03-13T02:42:28;3.60;;;3.50;;
63018;SDS011;49105;46.046;10.760;2023-03-13T02:44:54;3.20;;;3.10;;
63018;SDS011;49105;46.046;10.760;2023-03-13T02:47:20;3.50;;;3.40;;
63018;SDS011;49105;46.046;10.760;2023-03-13T02:49:47;3.22;;;3.13;;
63018;SDS011;49105;46.046;10.760;2023-03-13T02:55:07;3.25;;;3.15;;
63018;SDS011;49105;46.046;10.760;2023-03-13T02:57:38;3.33;;;3.22;;
63018;SDS011;49105;46.046;10.760;2023-03-13T03:00:04;3.40;;;3.30;;
63018;SDS011;49105;46.046;10.760;2023-03-13T03:02:31;3.65;;;3.42;;
63018;SDS011;49105;46.046;10.760;2023-03-13T03:04:56;3.10;;;3.00;;
63018;SDS011;49105;46.046;10.760;2023-03-13T03:07:22;3.58;;;3.47;;
63018;SDS011;49105;46.046;10.760;2023-03-13T03:09:47;3.30;;;3.20;;
63018;SDS011;49105;46.046;10.760;2023-03-13T03:12:13;3.38;;;3.28;;
63018;SDS011;49105;46.046;10.760;2023-03-13T03:14:38;3.40;;;3.30;;
63018;SDS011;49105;46.046;10.760;2023-03-13T03:17:04;3.55;;;3.45;;
63018;SDS011;49105;46.046;10.760;2023-03-13T03:19:29;3.92;;;3.83;;
63018;SDS011;49105;46.046;10.760;2023-03-13T03:21:55;3.33;;;3.22;;
63018;SDS011;49105;46.046;10.760;2023-03-13T03:24:20;3.08;;;2.97;;
63018;SDS011;49105;46.046;10.760;2023-03-13T03:26:46;4.32;;;4.22;;
63018;SDS011;49105;46.046;10.760;2023-03-13T03:29:11;4.15;;;4.05;;
63018;SDS011;49105;46.046;10.760;2023-03-13T03:31:37;3.97;;;3.88;;
63018;SDS011;49105;46.046;10.760;2023-03-13T03:34:02;4.00;;;3.90;;
63018;SDS011;49105;46.046;10.760;2023-03-13T03:36:28;4.53;;;4.35;;
63018;SDS011;49105;46.046;10.760;2023-03-13T03:38:53;3.75;;;3.65;;
63018;SDS011;49105;46.046;10.760;2023-03-13T03:41:19;4.15;;;4.05;;
63018;SDS011;49105;46.046;10.760;2023-03-13T03:43:45;3.90;;;3.70;;
63018;SDS011;49105;46.046;10.760;2023-03-13T03:46:11;3.40;;;3.30;;
63018;SDS011;49105;46.046;10.760;2023-03-13T03:48:38;4.68;;;4.47;;
63018;SDS011;49105;46.046;10.760;2023-03-13T03:51:03;3.58;;;3.47;;
63018;SDS011;49105;46.046;10.760;2023-03-13T03:53:29;4.15;;;4.05;;
63018;SDS011;49105;46.046;10.760;2023-03-13T03:55:56;5.10;;;4.72;;
63018;SDS011;49105;46.046;10.760;2023-03-13T03:58:22;4.05;;;3.95;;
63018;SDS011;49105;46.046;10.760;2023-03-13T04:00:47;4.30;;;4.10;;
63018;SDS011;49105;46.046;10.760;2023-03-13T04:03:13;3.40;;;3.30;;
63018;SDS011;49105;46.046;10.760;2023-03-13T04:05:39;4.00;;;3.90;;
63018;SDS011;49105;46.046;10.760;2023-03-13T04:08:05;3.90;;;3.80;;
63018;SDS011;49105;46.046;10.760;2023-03-13T04:10:31;4.22;;;4.13;;
63018;SDS011;49105;46.046;10.760;2023-03-13T04:12:56;4.10;;;3.90;;
63018;SDS011;49105;46.046;10.760;2023-03-13T04:15:22;4.53;;;4.32;;
63018;SDS011;49105;46.046;10.760;2023-03-13T04:17:47;4.10;;;3.95;;
63018;SDS011;49105;46.046;10.760;2023-03-13T04:20:12;4.28;;;4.18;;
63018;SDS011;49105;46.046;10.760;2023-03-13T04:22:38;3.40;;;3.30;;
63018;SDS011;49105;46.046;10.760;2023-03-13T04:25:05;3.97;;;3.88;;
63018;SDS011;49105;46.046;10.760;2023-03-13T04:27:31;4.32;;;4.03;;
63018;SDS011;49105;46.046;10.760;2023-03-13T04:29:57;3.80;;;3.70;;
63018;SDS011;49105;46.046;10.760;2023-03-13T04:32:23;3.90;;;3.80;;
63018;SDS011;49105;46.046;10.760;2023-03-13T04:34:48;3.78;;;3.67;;
63018;SDS011;49105;46.046;10.760;2023-03-13T04:37:14;4.13;;;4.03;;
63018;SDS011;49105;46.046;10.760;2023-03-13T04:39:39;4.18;;;4.07;;
63018;SDS011;49105;46.046;10.760;2023-03-13T04:42:05;4.28;;;4.18;;
63018;SDS011;49105;46.046;10.760;2023-03-13T04:44:30;4.45;;;4.35;;
63018;SDS011;49105;46.046;10.760;2023-03-13T04:46:56;4.50;;;4.40;;
63018;SDS011;49105;46.046;10.760;2023-03-13T04:49:21;4.10;;;4.00;;
63018;SDS011;49105;46.046;10.760;2023-03-13T04:51:46;3.90;;;3.80;;
63018;SDS011;49105;46.046;10.760;2023-03-13T04:54:12;4.30;;;4.20;;
63018;SDS011;49105;46.046;10.760;2023-03-13T04:56:37;4.50;;;4.40;;
63018;SDS011;49105;46.046;10.760;2023-03-13T04:59:03;4.45;;;4.35;;
63018;SDS011;49105;46.046;10.760;2023-03-13T05:01:29;3.90;;;3.80;;
63018;SDS011;49105;46.046;10.760;2023-03-13T05:03:54;3.90;;;3.80;;
63018;SDS011;49105;46.046;10.760;2023-03-13T05:06:20;3.95;;;3.85;;
63018;SDS011;49105;46.046;10.760;2023-03-13T05:08:46;3.80;;;3.70;;
63018;SDS011;49105;46.046;10.760;2023-03-13T05:11:11;3.80;;;3.70;;
63018;SDS011;49105;46.046;10.760;2023-03-13T05:13:36;3.80;;;3.70;;
63018;SDS011;49105;46.046;10.760;2023-03-13T05:16:02;4.13;;;4.03;;
63018;SDS011;49105;46.046;10.760;2023-03-13T05:18:28;4.07;;;3.97;;
63018;SDS011;49105;46.046;10.760;2023-03-13T05:20:53;4.40;;;4.30;;
63018;SDS011;49105;46.046;10.760;2023-03-13T05:23:19;5.03;;;4.82;;
63018;SDS011;49105;46.046;10.760;2023-03-13T05:25:44;4.38;;;4.28;;
63018;SDS011;49105;46.046;10.760;2023-03-13T05:28:10;4.20;;;4.10;;
63018;SDS011;49105;46.046;10.760;2023-03-13T05:30:36;4.35;;;4.25;;
63018;SDS011;49105;46.046;10.760;2023-03-13T05:33:01;5.20;;;5.03;;
63018;SDS011;49105;46.046;10.760;2023-03-13T05:35:27;3.92;;;3.83;;
63018;SDS011;49105;46.046;10.760;2023-03-13T05:37:52;3.70;;;3.60;;
63018;SDS011;49105;46.046;10.760;2023-03-13T05:40:17;4.15;;;4.05;;
63018;SDS011;49105;46.046;10.760;2023-03-13T05:46:04;3.70;;;3.60;;
63018;SDS011;49105;46.046;10.760;2023-03-13T05:48:30;3.67;;;3.58;;
63018;SDS011;49105;46.046;10.760;2023-03-13T05:50:56;3.53;;;3.42;;
63018;SDS011;49105;46.046;10.760;2023-03-13T05:53:22;3.72;;;3.63;;
63018;SDS011;49105;46.046;10.760;2023-03-13T05:55:47;3.60;;;3.50;;
63018;SDS011;49105;46.046;10.760;2023-03-13T05:58:13;4.03;;;3.92;;
63018;SDS011;49105;46.046;10.760;2023-03-13T06:00:38;4.15;;;4.05;;
63018;SDS011;49105;46.046;10.760;2023-03-13T06:03:03;3.80;;;3.70;;
63018;SDS011;49105;46.046;10.760;2023-03-13T06:05:29;4.00;;;3.90;;
63018;SDS011;49105;46.046;10.760;2023-03-13T06:07:54;4.13;;;4.03;;
63018;SDS011;49105;46.046;10.760;2023-03-13T06:13:02;4.10;;;4.00;;
63018;SDS011;49105;46.046;10.760;2023-03-13T06:15:27;3.97;;;3.88;;
63018;SDS011;49105;46.046;10.760;2023-03-13T06:17:52;3.20;;;3.10;;
63018;SDS011;49105;46.046;10.760;2023-03-13T06:20:24;3.40;;;3.30;;
63018;SDS011;49105;46.046;10.760;2023-03-13T06:22:49;3.03;;;2.92;;
63018;SDS011;49105;46.046;10.760;2023-03-13T06:25:21;3.03;;;2.92;;
63018;SDS011;49105;46.046;10.760;2023-03-13T06:27:59;3.10;;;3.00;;
63018;SDS011;49105;46.046;10.760;2023-03-13T06:30:34;3.60;;;3.50;;
63018;SDS011;49105;46.046;10.760;2023-03-13T06:33:25;3.45;;;3.35;;
63018;SDS011;49105;46.046;10.760;2023-03-13T06:35:50;2.90;;;2.80;;
63018;SDS011;49105;46.046;10.760;2023-03-13T06:38:25;3.15;;;3.05;;
63018;SDS011;49105;46.046;10.760;2023-03-13T06:41:04;3.30;;;3.20;;
63018;SDS011;49105;46.046;10.760;2023-03-13T06:43:31;3.47;;;3.38;;
63018;SDS011;49105;46.046;10.760;2023-03-13T06:46:01;2.90;;;2.80;;
63018;SDS011;49105;46.046;10.760;2023-03-13T06:48:36;2.95;;;2.85;;
63018;SDS011;49105;46.046;10.760;2023-03-13T06:51:02;2.90;;;2.80;;
63018;SDS011;49105;46.046;10.760;2023-03-13T06:53:36;2.85;;;2.75;;
63018;SDS011;49105;46.046;10.760;2023-03-13T06:56:02;3.30;;;3.20;;
63018;SDS011;49105;46.046;10.760;2023-03-13T06:58:37;3.50;;;3.40;;
63018;SDS011;49105;46.046;10.760;2023-03-13T07:01:15;3.42;;;3.33;;
63018;SDS011;49105;46.046;10.760;2023-03-13T07:03:48;3.58;;;3.47;;
63018;SDS011;49105;46.046;10.760;2023-03-13T07:08:45;3.53;;;3.30;;
63018;SDS011;49105;46.046;10.760;2023-03-13T07:11:13;3.10;;;3.00;;
63018;SDS011;49105;46.046;10.760;2023-03-13T07:13:39;2.80;;;2.70;;
63018;SDS011;49105;46.046;10.760;2023-03-13T07:16:09;3.30;;;3.20;;
63018;SDS011;49105;46.046;10.760;2023-03-13T07:18:43;3.50;;;3.30;;
63018;SDS011;49105;46.046;10.760;2023-03-13T07:21:43;2.92;;;2.83;;
63018;SDS011;49105;46.046;10.760;2023-03-13T07:24:16;3.30;;;3.20;;
63018;SDS011;49105;46.046;10.760;2023-03-13T07:29:16;3.00;;;2.90;;
63018;SDS011;49105;46.046;10.760;2023-03-13T07:31:41;2.67;;;2.65;;
63018;SDS011;49105;46.046;10.760;2023-03-13T07:34:07;3.35;;;3.25;;
63018;SDS011;49105;46.046;10.760;2023-03-13T07:36:32;2.97;;;2.88;;
63018;SDS011;49105;46.046;10.760;2023-03-13T07:39:05;3.10;;;3.00;;
63018;SDS011;49105;46.046;10.760;2023-03-13T07:41:33;3.13;;;3.03;;
63018;SDS011;49105;46.046;10.760;2023-03-13T07:44:05;3.30;;;3.20;;
63018;SDS011;49105;46.046;10.760;2023-03-13T07:49:02;3.80;;;3.70;;
63018;SDS011;49105;46.046;10.760;2023-03-13T07:51:33;3.03;;;2.92;;
63018;SDS011;49105;46.046;10.760;2023-03-13T07:53:59;3.97;;;3.67;;
63018;SDS011;49105;46.046;10.760;2023-03-13T07:56:27;3.45;;;3.28;;
63018;SDS011;49105;46.046;10.760;2023-03-13T07:58:53;3.25;;;3.15;;
63018;SDS011;49105;46.046;10.760;2023-03-13T08:01:47;2.83;;;2.72;;
63018;SDS011;49105;46.046;10.760;2023-03-13T08:04:22;3.47;;;3.28;;
63018;SDS011;49105;46.046;10.760;2023-03-13T08:06:56;3.33;;;3.13;;
63018;SDS011;49105;46.046;10.760;2023-03-13T08:09:31;3.00;;;2.90;;
63018;SDS011;49105;46.046;10.760;2023-03-13T08:11:57;3.17;;;3.08;;
63018;SDS011;49105;46.046;10.760;2023-03-13T08:14:32;2.90;;;2.80;;
63018;SDS011;49105;46.046;10.760;2023-03-13T08:16:57;3.22;;;3.13;;
63018;SDS011;49105;46.046;10.760;2023-03-13T08:19:23;3.10;;;3.00;;
63018;SDS011;49105;46.046;10.760;2023-03-13T08:21:48;2.65;;;2.65;;
63018;SDS011;49105;46.046;10.760;2023-03-13T08:24:13;2.90;;;2.80;;
63018;SDS011;49105;46.046;10.760;2023-03-13T08:26:42;2.25;;;2.25;;
63018;SDS011;49105;46.046;10.760;2023-03-13T08:29:08;3.13;;;3.03;;
63018;SDS011;49105;46.046;10.760;2023-03-13T08:31:48;2.60;;;2.60;;
63018;SDS011;49105;46.046;10.760;2023-03-13T08:34:17;2.60;;;2.60;;
63018;SDS011;49105;46.046;10.760;2023-03-13T08:36:50;2.90;;;2.83;;
63018;SDS011;49105;46.046;10.760;2023-03-13T08:39:19;2.70;;;2.60;;
63018;SDS011;49105;46.046;10.760;2023-03-13T08:41:45;2.72;;;2.63;;
63018;SDS011;49105;46.046;10.760;2023-03-13T08:44:12;2.60;;;2.60;;
63018;SDS011;49105;46.046;10.760;2023-03-13T08:46:39;2.78;;;2.67;;
63018;SDS011;49105;46.046;10.760;2023-03-13T08:49:06;2.60;;;2.58;;
63018;SDS011;49105;46.046;10.760;2023-03-13T08:51:33;2.30;;;2.30;;
63018;SDS011;49105;46.046;10.760;2023-03-13T08:53:59;1.90;;;1.90;;
63018;SDS011;49105;46.046;10.760;2023-03-13T08:56:26;1.92;;;1.92;;
63018;SDS011;49105;46.046;10.760;2023-03-13T08:58:53;2.17;;;2.17;;
63018;SDS011;49105;46.046;10.760;2023-03-13T09:01:21;2.25;;;2.25;;
63018;SDS011;49105;46.046;10.760;2023-03-13T09:03:48;2.35;;;2.35;;
63018;SDS011;49105;46.046;10.760;2023-03-13T09:06:14;2.53;;;2.45;;
63018;SDS011;49105;46.046;10.760;2023-03-13T09:08:39;2.80;;;2.70;;
63018;SDS011;49105;46.046;10.760;2023-03-13T09:11:10;2.25;;;2.15;;
63018;SDS011;49105;46.046;10.760;2023-03-13T09:13:38;2.63;;;2.42;;
63018;SDS011;49105;46.046;10.760;2023-03-13T09:16:06;2.10;;;2.10;;
63018;SDS011;49105;46.046;10.760;2023-03-13T09:18:33;2.15;;;2.15;;
63018;SDS011;49105;46.046;10.760;2023-03-13T09:20:59;2.30;;;2.20;;
63018;SDS011;49105;46.046;10.760;2023-03-13T09:23:25;2.10;;;2.08;;
63018;SDS011;49105;46.046;10.760;2023-03-13T09:25:54;2.08;;;2.08;;
63018;SDS011;49105;46.046;10.760;2023-03-13T09:28:21;1.80;;;1.80;;
63018;SDS011;49105;46.046;10.760;2023-03-13T09:30:48;1.90;;;1.90;;
63018;SDS011;49105;46.046;10.760;2023-03-13T09:33:17;1.70;;;1.70;;
63018;SDS011;49105;46.046;10.760;2023-03-13T09:35:45;2.07;;;2.07;;
63018;SDS011;49105;46.046;10.760;2023-03-13T09:38:15;1.80;;;1.80;;
63018;SDS011;49105;46.046;10.760;2023-03-13T09:40:43;1.83;;;1.83;;
63018;SDS011;49105;46.046;10.760;2023-03-13T09:45:59;2.05;;;2.05;;
63018;SDS011;49105;46.046;10.760;2023-03-13T09:48:37;1.98;;;1.98;;
63018;SDS011;49105;46.046;10.760;2023-03-13T09:53:58;2.03;;;2.03;;
63018;SDS011;49105;46.046;10.760;2023-03-13T09:56:44;2.40;;;2.35;;
63018;SDS011;49105;46.046;10.760;2023-03-13T09:59:18;1.70;;;1.70;;
63018;SDS011;49105;46.046;10.760;2023-03-13T10:01:51;1.90;;;1.90;;
63018;SDS011;49105;46.046;10.760;2023-03-13T10:04:34;2.45;;;2.35;;
63018;SDS011;49105;46.046;10.760;2023-03-13T10:07:11;1.95;;;1.92;;
63018;SDS011;49105;46.046;10.760;2023-03-13T10:09:37;1.77;;;1.77;;
63018;SDS011;49105;46.046;10.760;2023-03-13T10:17:35;1.70;;;1.70;;
63018;SDS011;49105;46.046;10.760;2023-03-13T10:20:17;1.80;;;1.80;;
63018;SDS011;49105;46.046;10.760;2023-03-13T10:23:00;1.50;;;1.50;;
63018;SDS011;49105;46.046;10.760;2023-03-13T10:25:37;2.63;;;2.53;;
63018;SDS011;49105;46.046;10.760;2023-03-13T10:28:10;1.92;;;1.92;;
63018;SDS011;49105;46.046;10.760;2023-03-13T10:34:20;2.47;;;2.38;;
63018;SDS011;49105;46.046;10.760;2023-03-13T10:36:54;2.50;;;2.40;;
63018;SDS011;49105;46.046;10.760;2023-03-13T10:39:23;1.83;;;1.73;;
63018;SDS011;49105;46.046;10.760;2023-03-13T10:41:50;1.60;;;1.60;;
63018;SDS011;49105;46.046;10.760;2023-03-13T10:44:22;2.22;;;2.13;;
63018;SDS011;49105;46.046;10.760;2023-03-13T10:47:00;1.60;;;1.60;;
63018;SDS011;49105;46.046;10.760;2023-03-13T10:49:35;1.73;;;1.73;;
63018;SDS011;49105;46.046;10.760;2023-03-13T10:52:30;1.58;;;1.58;;
63018;SDS011;49105;46.046;10.760;2023-03-13T10:55:06;2.05;;;1.90;;
63018;SDS011;49105;46.046;10.760;2023-03-13T10:57:35;2.08;;;1.98;;
63018;SDS011;49105;46.046;10.760;2023-03-13T11:02:55;2.08;;;2.08;;
63018;SDS011;49105;46.046;10.760;2023-03-13T11:10:49;2.58;;;2.00;;
63018;SDS011;49105;46.046;10.760;2023-03-13T11:13:32;2.10;;;2.10;;
63018;SDS011;49105;46.046;10.760;2023-03-13T11:16:02;2.47;;;2.38;;
63018;SDS011;49105;46.046;10.760;2023-03-13T11:24:27;1.90;;;1.90;;
63018;SDS011;49105;46.046;10.760;2023-03-13T11:36:34;2.00;;;2.00;;
63018;SDS011;49105;46.046;10.760;2023-03-13T11:41:59;2.97;;;2.88;;
63018;SDS011;49105;46.046;10.760;2023-03-13T11:47:28;2.40;;;2.30;;
63018;SDS011;49105;46.046;10.760;2023-03-13T11:58:16;1.90;;;1.90;;
63018;SDS011;49105;46.046;10.760;2023-03-13T12:01:11;2.03;;;2.03;;
63018;SDS011;49105;46.046;10.760;2023-03-13T12:04:02;2.50;;;2.30;;
63018;SDS011;49105;46.046;10.760;2023-03-13T12:09:36;2.95;;;2.85;;
63018;SDS011;49105;46.046;10.760;2023-03-13T12:12:17;2.20;;;2.20;;
63018;SDS011;49105;46.046;10.760;2023-03-13T12:17:48;2.22;;;2.22;;
63018;SDS011;49105;46.046;10.760;2023-03-13T12:20:31;2.80;;;2.70;;
63018;SDS011;49105;46.046;10.760;2023-03-13T12:26:14;1.85;;;1.85;;
63018;SDS011;49105;46.046;10.760;2023-03-13T12:28:50;2.58;;;2.42;;
63018;SDS011;49105;46.046;10.760;2023-03-13T12:45:16;2.65;;;2.55;;
63018;SDS011;49105;46.046;10.760;2023-03-13T12:50:47;2.10;;;2.10;;
63018;SDS011;49105;46.046;10.760;2023-03-13T12:56:32;2.85;;;2.65;;
63018;SDS011;49105;46.046;10.760;2023-03-13T12:59:15;2.50;;;2.40;;
63018;SDS011;49105;46.046;10.760;2023-03-13T13:02:07;2.92;;;2.75;;
63018;SDS011;49105;46.046;10.760;2023-03-13T13:05:01;4.28;;;2.40;;
63018;SDS011;49105;46.046;10.760;2023-03-13T13:07:30;2.50;;;2.40;;
63018;SDS011;49105;46.046;10.760;2023-03-13T13:12:33;2.10;;;2.10;;
63018;SDS011;49105;46.046;10.760;2023-03-13T13:15:00;2.80;;;2.70;;
63018;SDS011;49105;46.046;10.760;2023-03-13T13:20:49;2.47;;;2.38;;
63018;SDS011;49105;46.046;10.760;2023-03-13T13:25:49;3.00;;;2.90;;
63018;SDS011;49105;46.046;10.760;2023-03-13T13:30:46;2.35;;;2.35;;
63018;SDS011;49105;46.046;10.760;2023-03-13T13:36:21;2.00;;;2.00;;
63018;SDS011;49105;46.046;10.760;2023-03-13T13:38:32;2.40;;;2.40;;
63018;SDS011;49105;46.046;10.760;2023-03-13T13:57:15;3.00;;;2.90;;
63018;SDS011;49105;46.046;10.760;2023-03-13T14:02:46;3.38;;;3.17;;
63018;SDS011;49105;46.046;10.760;2023-03-13T14:05:16;2.95;;;2.70;;
63018;SDS011;49105;46.046;10.760;2023-03-13T14:07:56;2.60;;;2.50;;
63018;SDS011;49105;46.046;10.760;2023-03-13T14:10:38;2.03;;;2.00;;
63018;SDS011;49105;46.046;10.760;2023-03-13T14:13:12;2.63;;;2.42;;
63018;SDS011;49105;46.046;10.760;2023-03-13T14:15:44;2.10;;;2.10;;
63018;SDS011;49105;46.046;10.760;2023-03-13T14:20:51;1.80;;;1.80;;
63018;SDS011;49105;46.046;10.760;2023-03-13T14:25:57;2.60;;;2.50;;
63018;SDS011;49105;46.046;10.760;2023-03-13T14:31:49;2.08;;;2.08;;
63018;SDS011;49105;46.046;10.760;2023-03-13T14:34:22;2.80;;;2.72;;
63018;SDS011;49105;46.046;10.760;2023-03-13T14:44:44;2.83;;;2.72;;
63018;SDS011;49105;46.046;10.760;2023-03-13T14:50:22;2.10;;;2.10;;
63018;SDS011;49105;46.046;10.760;2023-03-13T14:53:00;2.40;;;2.40;;
63018;SDS011;49105;46.046;10.760;2023-03-13T14:55:30;2.70;;;2.60;;
63018;SDS011;49105;46.046;10.760;2023-03-13T15:00:48;2.88;;;2.67;;
63018;SDS011;49105;46.046;10.760;2023-03-13T15:03:21;2.10;;;2.10;;
63018;SDS011;49105;46.046;10.760;2023-03-13T15:06:02;2.78;;;2.67;;
63018;SDS011;49105;46.046;10.760;2023-03-13T15:08:39;2.70;;;2.63;;
63018;SDS011;49105;46.046;10.760;2023-03-13T15:11:30;2.33;;;2.33;;
63018;SDS011;49105;46.046;10.760;2023-03-13T15:14:01;2.80;;;2.70;;
63018;SDS011;49105;46.046;10.760;2023-03-13T15:16:36;2.00;;;2.00;;
63018;SDS011;49105;46.046;10.760;2023-03-13T15:19:01;3.00;;;2.90;;
63018;SDS011;49105;46.046;10.760;2023-03-13T15:21:33;2.40;;;2.35;;
63018;SDS011;49105;46.046;10.760;2023-03-13T15:24:06;2.13;;;2.13;;
63018;SDS011;49105;46.046;10.760;2023-03-13T15:26:37;2.53;;;2.42;;
63018;SDS011;49105;46.046;10.760;2023-03-13T15:29:02;2.90;;;2.80;;
63018;SDS011;49105;46.046;10.760;2023-03-13T15:31:37;2.15;;;2.15;;
63018;SDS011;49105;46.046;10.760;2023-03-13T15:34:10;2.92;;;2.72;;
63018;SDS011;49105;46.046;10.760;2023-03-13T15:36:38;2.20;;;2.20;;
63018;SDS011;49105;46.046;10.760;2023-03-13T15:39:16;2.20;;;2.10;;
63018;SDS011;49105;46.046;10.760;2023-03-13T15:41:46;2.33;;;2.33;;
63018;SDS011;49105;46.046;10.760;2023-03-13T15:44:27;2.20;;;2.15;;
63018;SDS011;49105;46.046;10.760;2023-03-13T15:46:55;2.50;;;2.40;;
63018;SDS011;49105;46.046;10.760;2023-03-13T15:49:33;2.42;;;2.33;;
63018;SDS011;49105;46.046;10.760;2023-03-13T15:52:12;2.33;;;2.33;;
63018;SDS011;49105;46.046;10.760;2023-03-13T15:54:45;4.35;;;3.88;;
63018;SDS011;49105;46.046;10.760;2023-03-13T16:00:32;2.33;;;2.22;;
63018;SDS011;49105;46.046;10.760;2023-03-13T16:03:09;2.80;;;2.60;;
63018;SDS011;49105;46.046;10.760;2023-03-13T16:05:40;2.40;;;2.30;;
63018;SDS011;49105;46.046;10.760;2023-03-13T16:08:08;2.35;;;2.33;;
63018;SDS011;49105;46.046;10.760;2023-03-13T16:10:46;2.53;;;2.33;;
63018;SDS011;49105;46.046;10.760;2023-03-13T16:13:20;2.20;;;2.20;;
63018;SDS011;49105;46.046;10.760;2023-03-13T16:15:53;2.33;;;2.25;;
63018;SDS011;49105;46.046;10.760;2023-03-13T16:18:24;2.85;;;2.75;;
63018;SDS011;49105;46.046;10.760;2023-03-13T16:23:21;2.65;;;2.55;;
63018;SDS011;49105;46.046;10.760;2023-03-13T16:25:47;2.22;;;2.22;;
63018;SDS011;49105;46.046;10.760;2023-03-13T16:28:13;2.40;;;2.40;;
63018;SDS011;49105;46.046;10.760;2023-03-13T16:30:40;2.30;;;2.30;;
63018;SDS011;49105;46.046;10.760;2023-03-13T16:33:13;2.40;;;2.40;;
63018;SDS011;49105;46.046;10.760;2023-03-13T16:35:43;2.05;;;2.05;;
63018;SDS011;49105;46.046;10.760;2023-03-13T16:38:21;2.00;;;2.00;;
63018;SDS011;49105;46.046;10.760;2023-03-13T16:40:59;2.08;;;2.08;;
63018;SDS011;49105;46.046;10.760;2023-03-13T16:43:28;1.75;;;1.75;;
63018;SDS011;49105;46.046;10.760;2023-03-13T16:46:00;1.70;;;1.70;;
63018;SDS011;49105;46.046;10.760;2023-03-13T16:48:32;2.08;;;1.98;;
63018;SDS011;49105;46.046;10.760;2023-03-13T16:51:10;2.70;;;2.60;;
63018;SDS011;49105;46.046;10.760;2023-03-13T16:53:44;3.22;;;3.08;;
63018;SDS011;49105;46.046;10.760;2023-03-13T16:56:18;2.25;;;2.25;;
63018;SDS011;49105;46.046;10.760;2023-03-13T16:58:47;1.88;;;1.88;;
63018;SDS011;49105;46.046;10.760;2023-03-13T17:01:13;3.53;;;2.30;;
63018;SDS011;49105;46.046;10.760;2023-03-13T17:03:47;1.60;;;1.60;;
63018;SDS011;49105;46.046;10.760;2023-03-13T17:06:23;2.70;;;2.50;;
63018;SDS011;49105;46.046;10.760;2023-03-13T17:08:59;1.83;;;1.83;;
63018;SDS011;49105;46.046;10.760;2023-03-13T17:11:29;2.08;;;2.08;;
63018;SDS011;49105;46.046;10.760;2023-03-13T17:13:55;2.45;;;2.38;;
63018;SDS011;49105;46.046;10.760;2023-03-13T17:16:30;1.90;;;1.90;;
63018;SDS011;49105;46.046;10.760;2023-03-13T17:19:05;1.90;;;1.90;;
63018;SDS011;49105;46.046;10.760;2023-03-13T17:21:37;1.80;;;1.80;;
63018;SDS011;49105;46.046;10.760;2023-03-13T17:24:12;2.50;;;2.40;;
63018;SDS011;49105;46.046;10.760;2023-03-13T17:26:47;3.10;;;2.00;;
63018;SDS011;49105;46.046;10.760;2023-03-13T17:29:14;2.25;;;2.15;;
63018;SDS011;49105;46.046;10.760;2023-03-13T17:31:47;2.13;;;2.13;;
63018;SDS011;49105;46.046;10.760;2023-03-13T17:36:47;2.40;;;2.40;;